createdAt,value
2022-08-14T00:00:07.653Z,19.18
2022-08-14T00:00:17.857Z,19.14
2022-08-14T00:00:27.836Z,19.15
2022-08-14T00:00:37.762Z,19.15
2022-08-14T00:00:47.831Z,19.17
2022-08-14T00:00:57.904Z,19.13
2022-08-14T00:01:11.503Z,19.15
2022-08-14T00:01:17.810Z,19.14
2022-08-14T00:01:27.871Z,19.15
2022-08-14T00:01:37.791Z,19.15
2022-08-14T00:01:55.244Z,19.13
2022-08-14T00:01:57.911Z,19.13
2022-08-14T00:02:07.944Z,19.14
2022-08-14T00:02:17.714Z,19.15
2022-08-14T00:02:31.190Z,19.17
2022-08-14T00:02:37.911Z,19.14
2022-08-14T00:02:47.803Z,19.14
2022-08-14T00:02:57.649Z,19.15
2022-08-14T00:03:07.682Z,19.15
2022-08-14T00:03:17.730Z,19.15
2022-08-14T00:03:29.392Z,19.15
2022-08-14T00:03:37.754Z,19.15
2022-08-14T00:03:47.884Z,19.14
2022-08-14T00:03:57.643Z,19.14
2022-08-14T00:04:35.762Z,19.14
2022-08-14T00:04:36.097Z,19.14
2022-08-14T00:04:36.158Z,19.14
2022-08-14T00:04:41.940Z,19.13
2022-08-14T00:04:47.615Z,19.14
2022-08-14T00:04:57.842Z,19.15
2022-08-14T00:05:07.764Z,19.14
2022-08-14T00:05:17.896Z,19.14
2022-08-14T00:05:27.759Z,19.15
2022-08-14T00:05:37.634Z,19.13
2022-08-14T00:05:47.668Z,19.14
2022-08-14T00:05:59.950Z,19.13
2022-08-14T00:06:13.932Z,19.10
2022-08-14T00:06:28.431Z,19.15
2022-08-14T00:06:29.205Z,19.13
2022-08-14T00:06:37.857Z,19.11
2022-08-14T00:06:47.843Z,19.13
2022-08-14T00:06:57.758Z,19.11
2022-08-14T00:07:07.687Z,19.10
2022-08-14T00:07:17.641Z,19.13
2022-08-14T00:07:27.670Z,19.11
2022-08-14T00:07:42.102Z,19.15
2022-08-14T00:07:47.749Z,19.13
2022-08-14T00:07:57.806Z,19.13
2022-08-14T00:08:14.467Z,19.15
2022-08-14T00:08:17.789Z,19.11
2022-08-14T00:08:44.323Z,19.13
2022-08-14T00:08:45.019Z,19.13
2022-08-14T00:08:47.696Z,19.11
2022-08-14T00:08:59.103Z,19.10
2022-08-14T00:09:07.743Z,19.11
2022-08-14T00:09:17.719Z,19.11
2022-08-14T00:09:27.680Z,19.14
2022-08-14T00:09:56.181Z,19.11
2022-08-14T00:10:01.674Z,19.08
2022-08-14T00:10:49.283Z,19.08
2022-08-14T00:10:49.680Z,19.08
2022-08-14T00:10:51.306Z,19.05
2022-08-14T00:10:51.613Z,19.05
2022-08-14T00:10:51.778Z,19.11
2022-08-14T00:10:52.273Z,19.08
2022-08-14T00:10:57.877Z,19.06
2022-08-14T00:11:07.645Z,19.06
2022-08-14T00:11:17.834Z,19.05
2022-08-14T00:11:28.720Z,19.05
2022-08-14T00:11:37.791Z,19.06
2022-08-14T00:11:47.792Z,19.05
2022-08-14T00:11:57.721Z,18.99
2022-08-14T00:12:23.450Z,18.99
2022-08-14T00:12:24.147Z,18.98
2022-08-14T00:12:39.610Z,19.05
2022-08-14T00:12:48.012Z,19.01
2022-08-14T00:12:48.065Z,19.02
2022-08-14T00:12:58.117Z,19.01
2022-08-14T00:13:07.640Z,19.02
2022-08-14T00:13:17.841Z,18.98
2022-08-14T00:13:27.780Z,18.98
2022-08-14T00:13:37.790Z,18.97
2022-08-14T00:13:52.771Z,18.98
2022-08-14T00:13:57.677Z,19.01
2022-08-14T00:14:07.754Z,18.99
2022-08-14T00:14:17.768Z,18.97
2022-08-14T00:14:27.723Z,19.01
2022-08-14T00:14:37.891Z,18.98
2022-08-14T00:14:47.631Z,18.99
2022-08-14T00:14:57.656Z,18.97
2022-08-14T00:15:07.873Z,18.97
2022-08-14T00:15:17.870Z,18.97
2022-08-14T00:15:30.027Z,18.98
2022-08-14T00:15:44.278Z,18.92
2022-08-14T00:15:48.415Z,18.99
2022-08-14T00:15:57.862Z,18.95
2022-08-14T00:16:07.796Z,18.94
2022-08-14T00:16:40.917Z,18.94
2022-08-14T00:16:40.975Z,18.91
2022-08-14T00:16:44.219Z,18.98
2022-08-14T00:16:47.640Z,18.92
2022-08-14T00:16:57.904Z,18.95
2022-08-14T00:17:07.865Z,18.92
2022-08-14T00:17:17.655Z,18.90
2022-08-14T00:17:27.855Z,18.91
2022-08-14T00:17:47.986Z,18.90
2022-08-14T00:17:53.105Z,18.87
2022-08-14T00:17:57.740Z,18.94
2022-08-14T00:18:07.866Z,18.92
2022-08-14T00:18:30.561Z,18.86
2022-08-14T00:19:05.698Z,18.90
2022-08-14T00:19:06.426Z,18.91
2022-08-14T00:19:06.841Z,18.87
2022-08-14T00:19:06.914Z,18.86
2022-08-14T00:19:18.673Z,18.91
2022-08-14T00:19:19.182Z,18.90
2022-08-14T00:19:27.887Z,18.90
2022-08-14T00:19:37.698Z,18.87
2022-08-14T00:19:47.753Z,18.87
2022-08-14T00:19:57.844Z,18.84
2022-08-14T00:20:07.770Z,18.87
2022-08-14T00:20:24.117Z,18.90
2022-08-14T00:20:30.323Z,18.90
2022-08-14T00:20:43.092Z,18.86
2022-08-14T00:20:47.797Z,18.87
2022-08-14T00:20:57.730Z,18.84
2022-08-14T00:21:11.125Z,18.84
2022-08-14T00:21:17.849Z,18.84
2022-08-14T00:21:28.281Z,18.83
2022-08-14T00:21:37.788Z,18.82
2022-08-14T00:21:47.775Z,18.82
2022-08-14T00:21:57.863Z,18.84
2022-08-14T00:22:07.615Z,18.79
2022-08-14T00:22:44.658Z,18.82
2022-08-14T00:22:57.016Z,18.83
2022-08-14T00:22:57.201Z,18.82
2022-08-14T00:22:57.560Z,18.80
2022-08-14T00:22:58.399Z,18.80
2022-08-14T00:23:11.906Z,18.82
2022-08-14T00:23:18.024Z,18.79
2022-08-14T00:23:27.804Z,18.77
2022-08-14T00:23:37.776Z,18.74
2022-08-14T00:23:54.018Z,18.77
2022-08-14T00:24:01.441Z,18.76
2022-08-14T00:24:07.681Z,18.74
2022-08-14T00:24:28.105Z,18.72
2022-08-14T00:24:29.125Z,18.73
2022-08-14T00:24:37.646Z,18.76
2022-08-14T00:24:47.840Z,18.72
2022-08-14T00:24:57.740Z,18.72
2022-08-14T00:25:07.768Z,18.68
2022-08-14T00:25:17.845Z,18.67
2022-08-14T00:25:41.471Z,18.72
2022-08-14T00:25:42.408Z,18.67
2022-08-14T00:25:53.772Z,18.70
2022-08-14T00:26:06.134Z,18.68
2022-08-14T00:26:08.492Z,18.67
2022-08-14T00:26:22.037Z,18.65
2022-08-14T00:26:27.913Z,18.65
2022-08-14T00:26:37.860Z,18.61
2022-08-14T00:26:47.785Z,18.64
2022-08-14T00:26:57.685Z,18.67
2022-08-14T00:27:07.695Z,18.61
2022-08-14T00:27:17.624Z,18.59
2022-08-14T00:27:27.810Z,18.61
2022-08-14T00:27:38.262Z,18.64
2022-08-14T00:27:49.134Z,18.61
2022-08-14T00:27:57.873Z,18.57
2022-08-14T00:28:07.703Z,18.58
2022-08-14T00:28:18.367Z,18.62
2022-08-14T00:28:29.051Z,18.59
2022-08-14T00:28:37.621Z,18.61
2022-08-14T00:28:47.642Z,18.55
2022-08-14T00:28:57.619Z,18.58
2022-08-14T00:29:07.708Z,18.55
2022-08-14T00:29:17.841Z,18.57
2022-08-14T00:29:27.847Z,18.57
2022-08-14T00:29:40.491Z,18.54
2022-08-14T00:29:47.907Z,18.54
2022-08-14T00:29:57.900Z,18.54
2022-08-14T00:30:07.758Z,18.54
2022-08-14T00:30:17.749Z,18.52
2022-08-14T00:30:27.824Z,18.55
2022-08-14T00:30:37.847Z,18.52
2022-08-14T00:30:47.884Z,18.49
2022-08-14T00:30:57.740Z,18.47
2022-08-14T00:31:08.021Z,18.47
2022-08-14T00:31:17.844Z,18.50
2022-08-14T00:31:35.080Z,18.52
2022-08-14T00:31:45.524Z,18.49
2022-08-14T00:31:47.642Z,18.52
2022-08-14T00:31:57.870Z,18.49
2022-08-14T00:32:51.725Z,18.49
2022-08-14T00:32:52.791Z,18.50
2022-08-14T00:32:53.122Z,18.49
2022-08-14T00:32:55.662Z,18.49
2022-08-14T00:32:57.757Z,18.44
2022-08-14T00:33:00.756Z,18.47
2022-08-14T00:33:15.494Z,18.50
2022-08-14T00:33:17.773Z,18.46
2022-08-14T00:33:50.646Z,18.47
2022-08-14T00:33:51.545Z,18.43
2022-08-14T00:33:52.142Z,18.46
2022-08-14T00:33:59.041Z,18.46
2022-08-14T00:34:35.872Z,18.47
2022-08-14T00:34:36.041Z,18.42
2022-08-14T00:34:37.243Z,18.46
2022-08-14T00:34:46.383Z,18.43
2022-08-14T00:34:48.242Z,18.46
2022-08-14T00:34:57.666Z,18.46
2022-08-14T00:35:07.776Z,18.46
2022-08-14T00:35:17.773Z,18.44
2022-08-14T00:36:34.911Z,18.46
2022-08-14T00:36:35.363Z,18.44
2022-08-14T00:36:36.110Z,18.44
2022-08-14T00:36:36.358Z,18.43
2022-08-14T00:36:36.429Z,18.46
2022-08-14T00:36:37.053Z,18.43
2022-08-14T00:36:39.243Z,18.43
2022-08-14T00:36:49.525Z,18.42
2022-08-14T00:36:49.701Z,18.42
2022-08-14T00:36:59.264Z,18.42
2022-08-14T00:37:07.808Z,18.43
2022-08-14T00:37:17.962Z,18.43
2022-08-14T00:37:27.684Z,18.46
2022-08-14T00:37:37.747Z,18.43
2022-08-14T00:37:47.834Z,18.43
2022-08-14T00:37:57.675Z,18.42
2022-08-14T00:38:07.711Z,18.43
2022-08-14T00:38:17.749Z,18.42
2022-08-14T00:38:27.741Z,18.44
2022-08-14T00:38:37.644Z,18.43
2022-08-14T00:38:47.644Z,18.40
2022-08-14T00:38:57.797Z,18.43
2022-08-14T00:39:09.643Z,18.42
2022-08-14T00:39:18.649Z,18.39
2022-08-14T00:39:27.736Z,18.43
2022-08-14T00:39:37.868Z,18.42
2022-08-14T00:39:47.998Z,18.40
2022-08-14T00:39:57.786Z,18.39
2022-08-14T00:40:27.379Z,18.43
2022-08-14T00:40:27.475Z,18.42
2022-08-14T00:40:33.447Z,18.37
2022-08-14T00:40:37.889Z,18.42
2022-08-14T00:40:47.803Z,18.46
2022-08-14T00:40:57.791Z,18.40
2022-08-14T00:41:11.008Z,18.42
2022-08-14T00:41:17.882Z,18.42
2022-08-14T00:41:27.661Z,18.42
2022-08-14T00:41:39.027Z,18.42
2022-08-14T00:41:47.783Z,18.43
2022-08-14T00:41:57.621Z,18.43
2022-08-14T00:42:21.231Z,18.42
2022-08-14T00:42:21.237Z,18.42
2022-08-14T00:42:55.213Z,18.39
2022-08-14T00:42:57.690Z,18.43
2022-08-14T00:43:03.036Z,18.42
2022-08-14T00:43:03.136Z,18.40
2022-08-14T00:43:08.304Z,18.42
2022-08-14T00:43:17.804Z,18.42
2022-08-14T00:43:32.279Z,18.42
2022-08-14T00:43:37.765Z,18.40
2022-08-14T00:43:47.809Z,18.40
2022-08-14T00:43:57.867Z,18.40
2022-08-14T00:44:08.123Z,18.37
2022-08-14T00:44:27.503Z,18.40
2022-08-14T00:44:32.339Z,18.40
2022-08-14T00:44:37.669Z,18.39
2022-08-14T00:44:47.880Z,18.40
2022-08-14T00:44:57.645Z,18.39
2022-08-14T00:45:07.903Z,18.39
2022-08-14T00:45:17.809Z,18.37
2022-08-14T00:45:27.625Z,18.37
2022-08-14T00:45:37.642Z,18.36
2022-08-14T00:45:51.685Z,18.39
2022-08-14T00:45:57.819Z,18.37
2022-08-14T00:46:07.926Z,18.36
2022-08-14T00:46:33.349Z,18.37
2022-08-14T00:46:33.418Z,18.40
2022-08-14T00:46:37.718Z,18.36
2022-08-14T00:46:47.725Z,18.37
2022-08-14T00:46:58.950Z,18.34
2022-08-14T00:47:07.804Z,18.36
2022-08-14T00:47:17.654Z,18.37
2022-08-14T00:47:27.800Z,18.37
2022-08-14T00:47:43.111Z,18.34
2022-08-14T00:47:47.766Z,18.37
2022-08-14T00:47:57.724Z,18.34
2022-08-14T00:48:07.902Z,18.37
2022-08-14T00:48:34.337Z,18.39
2022-08-14T00:48:34.360Z,18.36
2022-08-14T00:48:38.276Z,18.33
2022-08-14T00:48:49.001Z,18.36
2022-08-14T00:48:57.906Z,18.33
2022-08-14T00:49:07.909Z,18.36
2022-08-14T00:49:17.893Z,18.34
2022-08-14T00:49:27.879Z,18.37
2022-08-14T00:49:42.950Z,18.37
2022-08-14T00:49:47.823Z,18.37
2022-08-14T00:49:57.916Z,18.34
2022-08-14T00:50:07.841Z,18.31
2022-08-14T00:50:18.163Z,18.39
2022-08-14T00:50:27.679Z,18.33
2022-08-14T00:50:37.813Z,18.39
2022-08-14T00:50:47.890Z,18.33
2022-08-14T00:50:57.708Z,18.39
2022-08-14T00:51:07.747Z,18.36
2022-08-14T00:51:17.629Z,18.34
2022-08-14T00:51:37.735Z,18.36
2022-08-14T00:51:38.460Z,18.33
2022-08-14T00:51:48.238Z,18.37
2022-08-14T00:51:58.068Z,18.36
2022-08-14T00:52:07.894Z,18.39
2022-08-14T00:52:18.589Z,18.39
2022-08-14T00:52:27.695Z,18.34
2022-08-14T00:52:37.626Z,18.37
2022-08-14T00:52:50.969Z,18.33
2022-08-14T00:52:57.776Z,18.36
2022-08-14T00:53:10.610Z,18.36
2022-08-14T00:53:17.723Z,18.37
2022-08-14T00:53:27.767Z,18.36
2022-08-14T00:53:37.823Z,18.39
2022-08-14T00:53:47.666Z,18.39
2022-08-14T00:53:57.697Z,18.34
2022-08-14T00:54:11.257Z,18.36
2022-08-14T00:54:21.677Z,18.36
2022-08-14T00:54:27.676Z,18.36
2022-08-14T00:54:37.858Z,18.36
2022-08-14T00:54:47.888Z,18.37
2022-08-14T00:54:58.508Z,18.34
2022-08-14T00:55:07.667Z,18.36
2022-08-14T00:55:17.771Z,18.39
2022-08-14T00:55:27.839Z,18.34
2022-08-14T00:55:38.933Z,18.36
2022-08-14T00:55:47.668Z,18.37
2022-08-14T00:55:57.620Z,18.36
2022-08-14T00:56:08.442Z,18.33
2022-08-14T00:56:17.895Z,18.34
2022-08-14T00:56:31.205Z,18.36
2022-08-14T00:56:37.764Z,18.36
2022-08-14T00:56:47.644Z,18.36
2022-08-14T00:56:57.823Z,18.39
2022-08-14T00:57:07.920Z,18.33
2022-08-14T00:57:17.645Z,18.33
2022-08-14T00:57:27.698Z,18.36
2022-08-14T00:57:37.653Z,18.31
2022-08-14T00:57:47.799Z,18.34
2022-08-14T00:57:57.642Z,18.34
2022-08-14T00:58:07.837Z,18.31
2022-08-14T00:58:17.779Z,18.28
2022-08-14T00:58:32.918Z,18.28
2022-08-14T00:58:45.127Z,18.29
2022-08-14T00:58:48.426Z,18.31
2022-08-14T00:58:57.777Z,18.31
2022-08-14T00:59:07.714Z,18.28
2022-08-14T00:59:17.917Z,18.29
2022-08-14T00:59:27.696Z,18.25
2022-08-14T00:59:37.742Z,18.27
2022-08-14T00:59:47.913Z,18.27
2022-08-14T00:59:57.756Z,18.29
2022-08-14T01:00:07.719Z,18.27
2022-08-14T01:00:34.187Z,18.28
2022-08-14T01:00:37.100Z,18.22
2022-08-14T01:00:47.557Z,18.25
2022-08-14T01:00:57.312Z,18.24
2022-08-14T01:00:58.025Z,18.25
2022-08-14T01:01:07.777Z,18.27
2022-08-14T01:01:17.907Z,18.27
2022-08-14T01:01:28.005Z,18.22
2022-08-14T01:01:38.020Z,18.27
2022-08-14T01:01:47.785Z,18.24
2022-08-14T01:01:58.201Z,18.22
2022-08-14T01:02:09.432Z,18.25
2022-08-14T01:02:17.786Z,18.28
2022-08-14T01:02:28.296Z,18.25
2022-08-14T01:02:37.811Z,18.19
2022-08-14T01:02:47.768Z,18.22
2022-08-14T01:02:57.639Z,18.24
2022-08-14T01:03:07.630Z,18.21
2022-08-14T01:03:17.822Z,18.24
2022-08-14T01:03:27.647Z,18.24
2022-08-14T01:03:37.858Z,18.22
2022-08-14T01:03:52.778Z,18.25
2022-08-14T01:03:57.861Z,18.24
2022-08-14T01:04:07.805Z,18.25
2022-08-14T01:04:37.963Z,18.22
2022-08-14T01:04:51.258Z,18.28
2022-08-14T01:04:53.293Z,18.27
2022-08-14T01:04:54.167Z,18.25
2022-08-14T01:04:57.701Z,18.24
2022-08-14T01:05:07.691Z,18.22
2022-08-14T01:05:17.770Z,18.28
2022-08-14T01:05:27.793Z,18.24
2022-08-14T01:05:51.000Z,18.25
2022-08-14T01:05:51.515Z,18.25
2022-08-14T01:05:57.980Z,18.24
2022-08-14T01:06:07.802Z,18.24
2022-08-14T01:06:18.454Z,18.24
2022-08-14T01:06:30.235Z,18.24
2022-08-14T01:06:37.742Z,18.22
2022-08-14T01:06:47.929Z,18.24
2022-08-14T01:06:57.733Z,18.24
2022-08-14T01:07:08.112Z,18.24
2022-08-14T01:07:17.824Z,18.25
2022-08-14T01:07:27.785Z,18.27
2022-08-14T01:07:47.176Z,18.25
2022-08-14T01:07:56.834Z,18.25
2022-08-14T01:07:57.898Z,18.27
2022-08-14T01:08:07.793Z,18.22
2022-08-14T01:08:50.597Z,18.21
2022-08-14T01:08:52.066Z,18.24
2022-08-14T01:08:52.301Z,18.19
2022-08-14T01:08:57.733Z,18.24
2022-08-14T01:08:59.739Z,18.24
2022-08-14T01:09:07.659Z,18.22
2022-08-14T01:09:17.703Z,18.27
2022-08-14T01:09:27.788Z,18.25
2022-08-14T01:09:37.665Z,18.21
2022-08-14T01:09:47.830Z,18.24
2022-08-14T01:09:57.664Z,18.22
2022-08-14T01:10:07.770Z,18.22
2022-08-14T01:10:17.814Z,18.22
2022-08-14T01:10:27.798Z,18.22
2022-08-14T01:10:38.431Z,18.21
2022-08-14T01:10:47.796Z,18.21
2022-08-14T01:10:57.827Z,18.22
2022-08-14T01:11:07.858Z,18.19
2022-08-14T01:11:18.956Z,18.18
2022-08-14T01:11:31.665Z,18.18
2022-08-14T01:11:37.842Z,18.19
2022-08-14T01:11:57.125Z,18.18
2022-08-14T01:12:03.563Z,18.19
2022-08-14T01:12:07.833Z,18.15
2022-08-14T01:12:27.006Z,18.18
2022-08-14T01:12:30.066Z,18.15
2022-08-14T01:12:40.671Z,18.13
2022-08-14T01:12:47.865Z,18.12
2022-08-14T01:12:57.660Z,18.18
2022-08-14T01:13:07.852Z,18.19
2022-08-14T01:13:17.700Z,18.18
2022-08-14T01:13:27.847Z,18.15
2022-08-14T01:13:42.769Z,18.13
2022-08-14T01:13:55.702Z,18.10
2022-08-14T01:14:01.318Z,18.12
2022-08-14T01:14:25.192Z,18.13
2022-08-14T01:14:25.236Z,18.15
2022-08-14T01:14:28.435Z,18.13
2022-08-14T01:14:37.839Z,18.15
2022-08-14T01:14:47.871Z,18.13
2022-08-14T01:14:58.195Z,18.15
2022-08-14T01:15:09.417Z,18.12
2022-08-14T01:15:17.757Z,18.15
2022-08-14T01:15:55.166Z,18.15
2022-08-14T01:15:57.673Z,18.15
2022-08-14T01:15:57.857Z,18.13
2022-08-14T01:16:02.770Z,18.10
2022-08-14T01:16:07.706Z,18.13
2022-08-14T01:16:19.341Z,18.17
2022-08-14T01:16:30.659Z,18.13
2022-08-14T01:16:37.762Z,18.12
2022-08-14T01:16:47.745Z,18.15
2022-08-14T01:16:57.765Z,18.13
2022-08-14T01:17:08.840Z,18.12
2022-08-14T01:17:17.781Z,18.13
2022-08-14T01:17:27.665Z,18.12
2022-08-14T01:17:37.818Z,18.12
2022-08-14T01:17:49.862Z,18.10
2022-08-14T01:17:57.647Z,18.12
2022-08-14T01:18:07.786Z,18.07
2022-08-14T01:18:17.802Z,18.10
2022-08-14T01:18:27.759Z,18.10
2022-08-14T01:18:37.652Z,18.12
2022-08-14T01:18:57.743Z,18.15
2022-08-14T01:19:01.259Z,18.09
2022-08-14T01:19:07.670Z,18.12
2022-08-14T01:19:19.787Z,18.07
2022-08-14T01:19:27.756Z,18.09
2022-08-14T01:19:37.613Z,18.12
2022-08-14T01:19:48.062Z,18.10
2022-08-14T01:19:57.755Z,18.10
2022-08-14T01:20:07.783Z,18.13
2022-08-14T01:20:27.525Z,18.09
2022-08-14T01:20:29.813Z,18.09
2022-08-14T01:20:39.577Z,18.09
2022-08-14T01:20:47.625Z,18.10
2022-08-14T01:20:57.629Z,18.10
2022-08-14T01:21:07.657Z,18.06
2022-08-14T01:21:17.620Z,18.10
2022-08-14T01:21:27.845Z,18.10
2022-08-14T01:21:38.803Z,18.13
2022-08-14T01:21:53.422Z,18.04
2022-08-14T01:21:57.856Z,18.09
2022-08-14T01:22:07.884Z,18.07
2022-08-14T01:22:18.928Z,18.10
2022-08-14T01:22:29.537Z,18.09
2022-08-14T01:22:37.740Z,18.12
2022-08-14T01:22:47.792Z,18.09
2022-08-14T01:22:57.748Z,18.09
2022-08-14T01:23:07.673Z,18.09
2022-08-14T01:23:18.696Z,18.04
2022-08-14T01:23:27.865Z,18.09
2022-08-14T01:23:41.942Z,18.06
2022-08-14T01:23:47.848Z,18.09
2022-08-14T01:23:57.715Z,18.06
2022-08-14T01:24:10.847Z,18.06
2022-08-14T01:24:30.481Z,18.03
2022-08-14T01:24:30.800Z,18.03
2022-08-14T01:24:37.745Z,18.07
2022-08-14T01:24:47.896Z,18.06
2022-08-14T01:24:57.889Z,18.06
2022-08-14T01:25:07.633Z,18.03
2022-08-14T01:25:17.701Z,18.03
2022-08-14T01:25:27.734Z,18.04
2022-08-14T01:25:37.649Z,18.03
2022-08-14T01:25:47.772Z,18.04
2022-08-14T01:25:57.693Z,18.02
2022-08-14T01:26:07.754Z,18.02
2022-08-14T01:26:34.349Z,18.03
2022-08-14T01:26:35.145Z,18.02
2022-08-14T01:26:38.797Z,18.00
2022-08-14T01:26:50.793Z,18.02
2022-08-14T01:26:57.704Z,18.02
2022-08-14T01:27:07.829Z,18.00
2022-08-14T01:27:17.837Z,18.00
2022-08-14T01:27:27.896Z,17.97
2022-08-14T01:27:56.858Z,17.99
2022-08-14T01:27:57.258Z,17.95
2022-08-14T01:27:58.052Z,17.99
2022-08-14T01:28:07.644Z,17.97
2022-08-14T01:28:46.132Z,17.97
2022-08-14T01:28:47.356Z,17.97
2022-08-14T01:28:56.338Z,17.95
2022-08-14T01:28:56.573Z,17.94
2022-08-14T01:28:57.939Z,17.97
2022-08-14T01:29:10.944Z,17.95
2022-08-14T01:29:25.982Z,17.92
2022-08-14T01:29:52.764Z,17.91
2022-08-14T01:29:58.462Z,17.94
2022-08-14T01:30:00.744Z,17.94
2022-08-14T01:30:01.000Z,17.94
2022-08-14T01:30:07.775Z,17.92
2022-08-14T01:30:17.664Z,17.94
2022-08-14T01:30:27.663Z,17.95
2022-08-14T01:30:40.083Z,17.92
2022-08-14T01:30:47.700Z,17.92
2022-08-14T01:30:57.727Z,17.89
2022-08-14T01:31:07.840Z,17.88
2022-08-14T01:31:17.711Z,17.92
2022-08-14T01:31:27.877Z,17.91
2022-08-14T01:31:37.810Z,17.88
2022-08-14T01:31:50.387Z,17.89
2022-08-14T01:31:57.712Z,17.92
2022-08-14T01:32:10.384Z,17.91
2022-08-14T01:32:17.703Z,17.89
2022-08-14T01:32:27.805Z,17.88
2022-08-14T01:32:42.474Z,17.91
2022-08-14T01:32:51.182Z,17.85
2022-08-14T01:32:57.850Z,17.88
2022-08-14T01:33:08.019Z,17.91
2022-08-14T01:33:17.850Z,17.88
2022-08-14T01:33:27.849Z,17.85
2022-08-14T01:33:52.156Z,17.88
2022-08-14T01:34:07.446Z,17.89
2022-08-14T01:35:15.795Z,17.88
2022-08-14T01:35:17.493Z,17.85
2022-08-14T01:35:17.751Z,17.88
2022-08-14T01:35:18.069Z,17.87
2022-08-14T01:35:18.700Z,17.87
2022-08-14T01:35:19.130Z,17.81
2022-08-14T01:35:19.192Z,17.87
2022-08-14T01:35:20.487Z,17.88
2022-08-14T01:36:03.461Z,17.87
2022-08-14T01:36:03.849Z,17.87
2022-08-14T01:36:04.676Z,17.85
2022-08-14T01:36:05.308Z,17.88
2022-08-14T01:36:05.675Z,17.85
2022-08-14T01:36:20.783Z,17.85
2022-08-14T01:36:22.856Z,17.85
2022-08-14T01:36:27.872Z,17.82
2022-08-14T01:36:37.731Z,17.81
2022-08-14T01:36:47.720Z,17.82
2022-08-14T01:36:57.656Z,17.84
2022-08-14T01:37:07.757Z,17.82
2022-08-14T01:37:17.605Z,17.79
2022-08-14T01:37:27.798Z,17.79
2022-08-14T01:37:37.697Z,17.76
2022-08-14T01:37:56.728Z,17.79
2022-08-14T01:37:57.772Z,17.74
2022-08-14T01:38:07.886Z,17.76
2022-08-14T01:38:17.806Z,17.76
2022-08-14T01:38:27.672Z,17.76
2022-08-14T01:38:37.708Z,17.76
2022-08-14T01:38:48.994Z,17.76
2022-08-14T01:38:57.643Z,17.76
2022-08-14T01:39:12.663Z,17.74
2022-08-14T01:39:17.917Z,17.73
2022-08-14T01:39:27.843Z,17.73
2022-08-14T01:39:37.964Z,17.73
2022-08-14T01:39:47.728Z,17.73
2022-08-14T01:39:57.728Z,17.73
2022-08-14T01:40:07.664Z,17.70
2022-08-14T01:40:20.093Z,17.73
2022-08-14T01:40:36.518Z,17.71
2022-08-14T01:40:41.733Z,17.73
2022-08-14T01:40:47.726Z,17.71
2022-08-14T01:40:57.906Z,17.71
2022-08-14T01:41:14.687Z,17.67
2022-08-14T01:41:17.872Z,17.67
2022-08-14T01:41:29.805Z,17.70
2022-08-14T01:41:37.835Z,17.70
2022-08-14T01:41:47.745Z,17.66
2022-08-14T01:41:58.279Z,17.69
2022-08-14T01:42:08.810Z,17.74
2022-08-14T01:42:31.058Z,17.70
2022-08-14T01:42:32.253Z,17.71
2022-08-14T01:42:37.740Z,17.71
2022-08-14T01:42:47.909Z,17.69
2022-08-14T01:42:57.802Z,17.70
2022-08-14T01:43:07.715Z,17.73
2022-08-14T01:43:18.298Z,17.71
2022-08-14T01:43:27.812Z,17.67
2022-08-14T01:43:37.743Z,17.69
2022-08-14T01:43:56.708Z,17.70
2022-08-14T01:43:57.783Z,17.70
2022-08-14T01:44:07.709Z,17.70
2022-08-14T01:44:33.157Z,17.69
2022-08-14T01:44:33.318Z,17.69
2022-08-14T01:44:37.880Z,17.71
2022-08-14T01:44:49.936Z,17.69
2022-08-14T01:44:57.721Z,17.70
2022-08-14T01:45:07.851Z,17.71
2022-08-14T01:45:25.275Z,17.66
2022-08-14T01:45:27.683Z,17.69
2022-08-14T01:45:40.780Z,17.69
2022-08-14T01:45:49.069Z,17.69
2022-08-14T01:46:06.940Z,17.67
2022-08-14T01:46:07.784Z,17.64
2022-08-14T01:46:24.622Z,17.71
2022-08-14T01:46:33.428Z,17.64
2022-08-14T01:46:37.637Z,17.67
2022-08-14T01:46:48.401Z,17.64
2022-08-14T01:46:57.943Z,17.67
2022-08-14T01:47:07.840Z,17.67
2022-08-14T01:47:22.152Z,17.69
2022-08-14T01:47:27.631Z,17.67
2022-08-14T01:47:37.689Z,17.66
2022-08-14T01:47:47.855Z,17.67
2022-08-14T01:48:03.312Z,17.67
2022-08-14T01:48:07.637Z,17.67
2022-08-14T01:48:20.836Z,17.66
2022-08-14T01:48:27.717Z,17.64
2022-08-14T01:48:37.967Z,17.67
2022-08-14T01:48:47.744Z,17.62
2022-08-14T01:48:57.722Z,17.67
2022-08-14T01:49:07.732Z,17.63
2022-08-14T01:49:17.650Z,17.64
2022-08-14T01:49:35.209Z,17.63
2022-08-14T01:49:42.731Z,17.64
2022-08-14T01:49:59.437Z,17.62
2022-08-14T01:50:01.728Z,17.66
2022-08-14T01:50:07.749Z,17.63
2022-08-14T01:50:17.856Z,17.59
2022-08-14T01:50:27.727Z,17.63
2022-08-14T01:50:37.673Z,17.63
2022-08-14T01:50:47.683Z,17.62
2022-08-14T01:50:57.634Z,17.66
2022-08-14T01:51:20.058Z,17.62
2022-08-14T01:51:20.070Z,17.59
2022-08-14T01:51:27.649Z,17.62
2022-08-14T01:51:37.616Z,17.57
2022-08-14T01:51:47.764Z,17.59
2022-08-14T01:51:57.883Z,17.63
2022-08-14T01:52:09.012Z,17.62
2022-08-14T01:52:34.165Z,17.57
2022-08-14T01:52:57.832Z,17.62
2022-08-14T01:52:59.277Z,17.62
2022-08-14T01:52:59.327Z,17.63
2022-08-14T01:53:00.271Z,17.57
2022-08-14T01:53:07.808Z,17.55
2022-08-14T01:53:17.874Z,17.59
2022-08-14T01:53:29.685Z,17.62
2022-08-14T01:53:37.668Z,17.59
2022-08-14T01:53:47.654Z,17.57
2022-08-14T01:53:57.737Z,17.57
2022-08-14T01:54:07.811Z,17.57
2022-08-14T01:54:17.863Z,17.63
2022-08-14T01:54:38.203Z,17.59
2022-08-14T01:54:38.351Z,17.57
2022-08-14T01:54:57.885Z,17.57
2022-08-14T01:54:58.486Z,17.57
2022-08-14T01:55:07.635Z,17.55
2022-08-14T01:55:17.675Z,17.55
2022-08-14T01:55:27.811Z,17.57
2022-08-14T01:55:37.747Z,17.57
2022-08-14T01:55:47.676Z,17.57
2022-08-14T01:55:57.839Z,17.55
2022-08-14T01:56:12.057Z,17.55
2022-08-14T01:56:18.242Z,17.54
2022-08-14T01:56:27.667Z,17.54
2022-08-14T01:56:39.415Z,17.53
2022-08-14T01:56:47.670Z,17.55
2022-08-14T01:56:57.783Z,17.54
2022-08-14T01:57:07.713Z,17.53
2022-08-14T01:57:17.722Z,17.54
2022-08-14T01:57:33.975Z,17.57
2022-08-14T01:58:00.192Z,17.57
2022-08-14T01:58:00.315Z,17.53
2022-08-14T01:58:02.211Z,17.53
2022-08-14T01:58:19.551Z,17.53
2022-08-14T01:58:19.747Z,17.53
2022-08-14T01:58:28.767Z,17.54
2022-08-14T01:58:37.810Z,17.53
2022-08-14T01:58:57.239Z,17.57
2022-08-14T01:58:58.396Z,17.57
2022-08-14T01:59:09.566Z,17.55
2022-08-14T01:59:18.400Z,17.54
2022-08-14T01:59:27.771Z,17.57
2022-08-14T01:59:38.592Z,17.53
2022-08-14T01:59:47.824Z,17.53
2022-08-14T01:59:57.832Z,17.53
2022-08-14T02:00:07.676Z,17.53
2022-08-14T02:00:18.152Z,17.53
2022-08-14T02:00:28.002Z,17.57
2022-08-14T02:00:37.617Z,17.55
2022-08-14T02:00:48.410Z,17.55
2022-08-14T02:00:57.829Z,17.55
2022-08-14T02:01:07.858Z,17.55
2022-08-14T02:01:17.891Z,17.63
2022-08-14T02:01:27.691Z,17.57
2022-08-14T02:01:37.696Z,17.59
2022-08-14T02:01:51.175Z,17.57
2022-08-14T02:01:59.202Z,17.59
2022-08-14T02:02:10.025Z,17.62
2022-08-14T02:02:19.928Z,17.55
2022-08-14T02:02:27.823Z,17.62
2022-08-14T02:02:37.774Z,17.59
2022-08-14T02:02:47.974Z,17.63
2022-08-14T02:02:57.925Z,17.57
2022-08-14T02:03:07.936Z,17.63
2022-08-14T02:03:17.650Z,17.62
2022-08-14T02:03:30.194Z,17.62
2022-08-14T02:03:40.189Z,17.59
2022-08-14T02:03:49.996Z,17.62
2022-08-14T02:03:57.631Z,17.62
2022-08-14T02:04:40.460Z,17.59
2022-08-14T02:04:40.564Z,17.63
2022-08-14T02:04:40.889Z,17.59
2022-08-14T02:04:55.126Z,17.62
2022-08-14T02:04:56.739Z,17.63
2022-08-14T02:04:57.901Z,17.59
2022-08-14T02:05:07.763Z,17.64
2022-08-14T02:05:17.758Z,17.62
2022-08-14T02:05:27.791Z,17.57
2022-08-14T02:05:38.479Z,17.57
2022-08-14T02:05:47.746Z,17.59
2022-08-14T02:05:57.937Z,17.62
2022-08-14T02:06:32.206Z,17.59
2022-08-14T02:06:32.659Z,17.59
2022-08-14T02:06:32.696Z,17.62
2022-08-14T02:06:37.719Z,17.57
2022-08-14T02:06:47.791Z,17.62
2022-08-14T02:06:57.833Z,17.62
2022-08-14T02:07:07.896Z,17.62
2022-08-14T02:07:17.637Z,17.63
2022-08-14T02:07:53.682Z,17.59
2022-08-14T02:07:53.719Z,17.59
2022-08-14T02:07:55.608Z,17.63
2022-08-14T02:08:09.040Z,17.59
2022-08-14T02:08:09.365Z,17.63
2022-08-14T02:08:22.278Z,17.59
2022-08-14T02:08:35.117Z,17.59
2022-08-14T02:08:37.771Z,17.63
2022-08-14T02:08:53.136Z,17.62